TimePDT,TemperatureF,Dew PointF,Humidity,Sea Level PressureIn,VisibilityMPH,Wind Direction,Wind SpeedMPH,Gust SpeedMPH,PrecipitationIn,Events,Conditions,WindDirDegrees,DateUTC
12:56 AM,81.0,34.0,18,29.89,10.0,West,11.5,-,N/A,,Clear,280,2013-08-22 07:56:00
1:56 AM,80.1,34.0,19,29.90,10.0,Variable,3.5,-,N/A,,Clear,0,2013-08-22 08:56:00
2:56 AM,80.1,30.9,17,29.90,10.0,WSW,8.1,-,N/A,,Clear,250,2013-08-22 09:56:00
3:56 AM,71.1,34.0,26,29.91,10.0,NNW,4.6,-,N/A,,Clear,330,2013-08-22 10:56:00
4:56 AM,72.0,34.0,25,29.91,10.0,Calm,Calm,-,N/A,,Clear,0,2013-08-22 11:56:00
5:56 AM,72.0,30.0,21,29.91,10.0,West,10.4,-,N/A,,Clear,270,2013-08-22 12:56:00
6:56 AM,72.0,37.0,28,29.94,10.0,East,3.5,-,N/A,,Clear,90,2013-08-22 13:56:00
7:56 AM,78.1,28.9,17,29.94,10.0,NNW,5.8,-,N/A,,Clear,330,2013-08-22 14:56:00
8:56 AM,86.0,26.1,11,29.92,10.0,Variable,4.6,-,N/A,,Clear,0,2013-08-22 15:56:00
9:56 AM,89.1,28.0,11,29.92,10.0,Calm,Calm,-,N/A,,Clear,0,2013-08-22 16:56:00
10:56 AM,93.0,35.1,13,29.91,10.0,SSE,3.5,-,N/A,,Clear,160,2013-08-22 17:56:00
11:56 AM,97.0,39.9,14,29.88,10.0,SSW,15.0,25.3,N/A,,Clear,210,2013-08-22 18:56:00
12:56 PM,99.0,37.0,12,29.87,10.0,SW,15.0,21.9,N/A,,Clear,230,2013-08-22 19:56:00
1:56 PM,100.0,35.1,10,29.86,10.0,WSW,17.3,-,N/A,,Clear,250,2013-08-22 20:56:00
2:56 PM,99.0,32.0,10,29.84,10.0,WSW,21.9,31.1,N/A,,Clear,250,2013-08-22 21:56:00
3:56 PM,98.1,33.1,10,29.83,10.0,WSW,20.7,27.6,N/A,,Clear,250,2013-08-22 22:56:00
4:56 PM,97.0,33.1,11,29.82,10.0,SW,18.4,26.5,N/A,,Clear,220,2013-08-22 23:56:00
5:56 PM,95.0,35.1,12,29.81,10.0,WSW,18.4,26.5,N/A,,Clear,250,2013-08-23 00:56:00
6:56 PM,91.0,36.0,14,29.82,10.0,West,16.1,-,N/A,,Clear,260,2013-08-23 01:56:00
7:56 PM,86.0,34.0,16,29.84,10.0,West,9.2,-,N/A,,Clear,280,2013-08-23 02:56:00
8:56 PM,82.9,30.9,15,29.86,10.0,SW,5.8,-,N/A,,Clear,230,2013-08-23 03:56:00
9:56 PM,82.0,26.1,13,29.87,10.0,WSW,10.4,-,N/A,,Clear,250,2013-08-23 04:56:00
10:56 PM,77.0,27.0,16,29.87,10.0,West,6.9,-,N/A,,Clear,260,2013-08-23 05:56:00
11:56 PM,77.0,28.0,17,29.86,10.0,West,11.5,-,N/A,,Clear,260,2013-08-23 06:56:00